createdAt,value
2023-03-14T00:01:11.319Z,7.57
2023-03-14T00:03:39.150Z,7.53
2023-03-14T00:06:08.154Z,7.59
2023-03-14T00:08:36.144Z,7.50
2023-03-14T00:11:07.067Z,7.63
2023-03-14T00:13:35.179Z,7.58
2023-03-14T00:16:08.532Z,7.58
2023-03-14T00:18:36.823Z,7.52
2023-03-14T00:21:06.069Z,7.41
2023-03-14T00:23:35.133Z,7.34
2023-03-14T00:26:03.075Z,7.26
2023-03-14T00:28:31.406Z,7.18
2023-03-14T00:30:59.206Z,7.26
2023-03-14T00:33:28.306Z,7.28
2023-03-14T00:35:57.481Z,7.29
2023-03-14T00:38:25.560Z,7.29
2023-03-14T00:40:53.567Z,7.28
2023-03-14T00:43:22.642Z,7.30
2023-03-14T00:45:50.444Z,7.37
2023-03-14T00:48:18.284Z,7.27
2023-03-14T00:50:47.682Z,7.38
2023-03-14T00:53:15.280Z,7.41
2023-03-14T00:55:44.341Z,7.34
2023-03-14T00:58:12.731Z,7.28
2023-03-14T01:00:41.155Z,7.30
2023-03-14T01:03:10.127Z,7.28
2023-03-14T01:05:37.874Z,7.36
2023-03-14T01:08:07.818Z,7.43
2023-03-14T01:10:35.635Z,7.53
2023-03-14T01:13:03.244Z,7.55
2023-03-14T01:15:31.408Z,7.46
2023-03-14T01:17:59.013Z,7.50
2023-03-14T01:20:26.701Z,7.56
2023-03-14T01:22:54.258Z,7.56
2023-03-14T01:25:23.438Z,7.60
2023-03-14T01:27:50.996Z,7.62
2023-03-14T01:30:18.640Z,7.59
2023-03-14T01:32:46.325Z,7.63
2023-03-14T01:35:13.999Z,7.87
2023-03-14T01:37:41.615Z,7.91
2023-03-14T01:40:14.844Z,7.68
2023-03-14T01:42:48.349Z,7.63
2023-03-14T01:45:53.465Z,7.51
2023-03-14T01:48:21.235Z,7.56
2023-03-14T01:50:48.884Z,7.44
2023-03-14T01:53:17.053Z,7.41
2023-03-14T01:55:44.665Z,7.38
2023-03-14T01:58:13.704Z,7.41
2023-03-14T02:00:41.376Z,7.39
2023-03-14T02:03:12.387Z,7.43
2023-03-14T02:05:41.223Z,7.34
2023-03-14T02:08:11.693Z,7.33
2023-03-14T02:10:41.110Z,7.20
2023-03-14T02:13:09.125Z,7.23
2023-03-14T02:15:38.995Z,7.19
2023-03-14T02:18:07.257Z,7.14
2023-03-14T02:20:37.774Z,7.10
2023-03-14T02:23:05.496Z,7.09
2023-03-14T02:25:39.069Z,7.06
2023-03-14T02:28:08.101Z,7.07
2023-03-14T02:30:36.170Z,7.06
2023-03-14T02:33:06.648Z,7.06
2023-03-14T02:35:37.056Z,7.06
2023-03-14T02:38:09.397Z,7.04
2023-03-14T02:40:37.041Z,7.07
2023-03-14T02:43:04.713Z,7.07
2023-03-14T02:45:44.705Z,7.07
2023-03-14T02:48:18.492Z,7.00
2023-03-14T02:50:47.602Z,7.02
2023-03-14T02:53:18.693Z,6.99
2023-03-14T02:55:49.864Z,6.94
2023-03-14T02:58:17.873Z,6.95
2023-03-14T03:00:47.131Z,6.96
2023-03-14T03:03:15.597Z,6.94
2023-03-14T03:05:43.448Z,6.87
2023-03-14T03:08:11.239Z,6.78
2023-03-14T03:10:38.862Z,6.82
2023-03-14T03:13:06.454Z,6.74
2023-03-14T03:15:34.076Z,6.80
2023-03-14T03:18:03.041Z,6.77
2023-03-14T03:20:30.659Z,6.75
2023-03-14T03:22:58.299Z,6.76
2023-03-14T03:25:25.929Z,6.77
2023-03-14T03:27:53.587Z,6.79
2023-03-14T03:30:21.375Z,6.72
2023-03-14T03:32:49.051Z,6.79
2023-03-14T03:35:18.592Z,6.76
2023-03-14T03:37:46.188Z,6.68
2023-03-14T03:40:14.024Z,6.68
2023-03-14T03:42:41.631Z,6.65
2023-03-14T03:45:10.276Z,6.59
2023-03-14T03:47:37.855Z,6.67
2023-03-14T03:50:06.307Z,6.65
2023-03-14T03:52:35.410Z,6.65
2023-03-14T03:55:03.049Z,6.64
2023-03-14T03:57:30.630Z,6.64
2023-03-14T03:59:58.230Z,6.69
2023-03-14T04:02:25.918Z,6.63
2023-03-14T04:04:53.774Z,6.62
2023-03-14T04:07:21.743Z,6.62
2023-03-14T04:09:50.708Z,6.59
2023-03-14T04:12:18.312Z,6.62
2023-03-14T04:14:45.966Z,6.57
2023-03-14T04:17:13.650Z,6.53
2023-03-14T04:19:41.694Z,6.51
2023-03-14T04:22:10.126Z,6.47
2023-03-14T04:24:37.837Z,6.43
2023-03-14T04:27:06.830Z,6.45
2023-03-14T04:29:35.186Z,6.41
2023-03-14T04:32:02.863Z,6.40
2023-03-14T04:34:30.443Z,6.37
2023-03-14T04:36:58.243Z,6.36
2023-03-14T04:39:26.026Z,6.35
2023-03-14T04:41:54.459Z,6.31
2023-03-14T04:44:23.562Z,6.30
2023-03-14T04:46:51.328Z,6.20
2023-03-14T04:49:18.998Z,6.30
2023-03-14T04:51:46.676Z,6.33
2023-03-14T04:54:15.031Z,6.31
2023-03-14T04:56:42.641Z,6.28
2023-03-14T04:59:10.274Z,6.29
2023-03-14T05:01:39.314Z,6.26
2023-03-14T05:04:06.997Z,6.25
2023-03-14T05:06:34.605Z,6.21
2023-03-14T05:09:02.317Z,6.22
2023-03-14T05:11:30.419Z,6.20
2023-03-14T05:13:58.039Z,6.16
2023-03-14T05:16:25.734Z,6.21
2023-03-14T05:18:54.779Z,6.17
2023-03-14T05:21:22.386Z,6.14
2023-03-14T05:23:49.973Z,6.13
2023-03-14T05:26:18.407Z,6.14
2023-03-14T05:28:46.004Z,6.12
2023-03-14T05:31:13.657Z,6.16
2023-03-14T05:33:42.005Z,6.22
2023-03-14T05:36:11.731Z,6.14
2023-03-14T05:38:39.488Z,6.30
2023-03-14T05:41:07.403Z,6.29
2023-03-14T05:43:35.110Z,6.27
2023-03-14T05:46:02.879Z,6.27
2023-03-14T05:48:30.585Z,6.24
2023-03-14T05:50:58.454Z,6.25
2023-03-14T05:53:27.892Z,6.25
2023-03-14T05:55:58.055Z,6.25
2023-03-14T05:58:26.062Z,6.21
2023-03-14T06:00:53.723Z,6.21
2023-03-14T06:03:21.451Z,6.19
2023-03-14T06:05:51.747Z,6.24
2023-03-14T06:08:19.469Z,6.23
2023-03-14T06:10:48.535Z,6.19
2023-03-14T06:13:16.778Z,6.28
2023-03-14T06:15:44.816Z,6.31
2023-03-14T06:18:13.278Z,6.31
2023-03-14T06:20:41.232Z,6.27
2023-03-14T06:23:09.341Z,6.33
2023-03-14T06:25:37.643Z,6.31
2023-03-14T06:28:06.793Z,6.30
2023-03-14T06:30:34.454Z,6.34
2023-03-14T06:33:02.217Z,6.34
2023-03-14T06:35:29.805Z,6.38
2023-03-14T06:37:57.481Z,6.36
2023-03-14T06:40:25.068Z,6.44
2023-03-14T06:42:52.837Z,6.44
2023-03-14T06:45:21.806Z,6.58
2023-03-14T06:47:49.492Z,6.63
2023-03-14T06:50:17.170Z,6.64
2023-03-14T06:52:49.037Z,6.68
2023-03-14T06:55:17.421Z,6.61
2023-03-14T06:57:45.253Z,6.64
2023-03-14T07:00:14.111Z,6.65
2023-03-14T07:02:43.656Z,6.67
2023-03-14T07:05:11.686Z,6.64
2023-03-14T07:07:39.326Z,6.66
2023-03-14T07:10:09.710Z,6.68
2023-03-14T07:12:37.558Z,6.60
2023-03-14T07:15:17.702Z,6.65
2023-03-14T07:17:49.000Z,6.68
2023-03-14T07:20:17.077Z,6.65
2023-03-14T07:22:44.927Z,6.61
2023-03-14T07:25:13.124Z,6.69
2023-03-14T07:27:41.237Z,6.68
2023-03-14T07:30:09.773Z,6.71
2023-03-14T07:32:37.431Z,6.85
2023-03-14T07:35:07.722Z,6.93
2023-03-14T07:37:35.322Z,7.03
2023-03-14T07:40:06.539Z,7.13
2023-03-14T07:42:34.264Z,7.20
2023-03-14T07:45:01.869Z,7.19
2023-03-14T07:47:29.540Z,7.17
2023-03-14T07:49:57.115Z,7.14
2023-03-14T07:52:26.144Z,7.15
2023-03-14T07:54:53.725Z,7.24
2023-03-14T07:57:21.451Z,7.19
2023-03-14T07:59:49.039Z,7.23
2023-03-14T08:02:16.711Z,7.24
2023-03-14T08:04:44.571Z,7.19
2023-03-14T08:07:12.323Z,7.16
2023-03-14T08:09:41.389Z,7.08
2023-03-14T08:12:09.466Z,7.16
2023-03-14T08:14:37.297Z,7.24
2023-03-14T08:17:05.715Z,7.29
2023-03-14T08:19:33.485Z,7.30
2023-03-14T08:22:01.084Z,7.37
2023-03-14T08:24:28.992Z,7.35
2023-03-14T08:26:57.960Z,7.43
2023-03-14T08:29:25.802Z,7.48
2023-03-14T08:31:53.547Z,7.47
2023-03-14T08:34:21.224Z,7.51
2023-03-14T08:36:48.810Z,7.58
2023-03-14T08:39:16.524Z,7.62
2023-03-14T08:41:45.454Z,7.70
2023-03-14T08:44:14.499Z,7.75
2023-03-14T08:46:42.375Z,7.84
2023-03-14T08:49:10.057Z,7.87
2023-03-14T08:51:37.686Z,7.95
2023-03-14T08:54:05.284Z,7.93
2023-03-14T08:56:32.948Z,8.06
2023-03-14T08:59:00.536Z,8.18
2023-03-14T09:01:30.014Z,8.24
2023-03-14T09:03:57.687Z,8.28
2023-03-14T09:06:25.430Z,8.22
2023-03-14T09:08:53.050Z,8.35
2023-03-14T09:11:20.686Z,8.56
2023-03-14T09:13:49.529Z,8.44
2023-03-14T09:16:17.356Z,8.50
2023-03-14T09:18:47.597Z,8.58
2023-03-14T09:21:15.545Z,8.69
2023-03-14T09:23:45.223Z,8.87
2023-03-14T09:26:14.261Z,8.62
2023-03-14T09:28:41.881Z,8.64
2023-03-14T09:31:10.315Z,8.67
2023-03-14T09:33:38.371Z,8.68
2023-03-14T09:36:08.643Z,8.75
2023-03-14T09:38:36.596Z,8.81
2023-03-14T09:41:12.225Z,8.89
2023-03-14T09:43:40.089Z,9.05
2023-03-14T09:46:10.135Z,9.10
2023-03-14T09:48:37.736Z,8.92
2023-03-14T09:51:10.080Z,8.95
2023-03-14T09:53:41.822Z,8.87
2023-03-14T09:56:14.072Z,8.80
2023-03-14T09:58:43.386Z,8.82
2023-03-14T10:01:13.287Z,8.97
2023-03-14T10:03:41.195Z,9.07
2023-03-14T10:06:14.650Z,9.35
2023-03-14T10:08:43.520Z,9.47
2023-03-14T10:11:16.966Z,9.55
2023-03-14T10:14:06.348Z,9.53
2023-03-14T10:16:35.625Z,9.44
2023-03-14T10:19:05.759Z,9.48
2023-03-14T10:21:39.045Z,9.46
2023-03-14T10:24:11.760Z,9.97
2023-03-14T10:26:39.523Z,10.49
2023-03-14T10:29:12.544Z,10.33
2023-03-14T10:34:25.238Z,10.55
2023-03-14T10:37:00.273Z,11.01
2023-03-14T10:39:31.226Z,11.11
2023-03-14T10:42:06.253Z,10.83
2023-03-14T10:44:34.695Z,10.86
2023-03-14T10:47:04.056Z,10.65
2023-03-14T10:49:34.196Z,10.81
2023-03-14T10:52:16.466Z,10.86
2023-03-14T10:54:48.974Z,10.92
2023-03-14T10:57:16.902Z,11.05
2023-03-14T10:59:45.358Z,11.33
2023-03-14T11:02:30.592Z,11.47
2023-03-14T11:05:06.356Z,11.52
2023-03-14T11:07:39.477Z,11.78
2023-03-14T11:10:16.509Z,11.63
2023-03-14T11:12:50.623Z,11.44
2023-03-14T11:15:22.157Z,10.83
2023-03-14T11:18:01.622Z,11.01
2023-03-14T11:20:35.935Z,11.04
2023-03-14T11:23:10.766Z,10.76
2023-03-14T11:25:45.288Z,10.66
2023-03-14T11:28:20.842Z,10.69
2023-03-14T11:30:53.544Z,10.60
2023-03-14T11:33:26.104Z,10.75
2023-03-14T11:36:00.189Z,10.97
2023-03-14T11:38:35.966Z,11.07
2023-03-14T11:41:03.702Z,10.80
2023-03-14T11:43:33.058Z,10.73
2023-03-14T11:46:06.803Z,10.99
2023-03-14T11:48:41.967Z,11.05
2023-03-14T11:51:15.016Z,10.74
2023-03-14T11:53:51.866Z,10.76
2023-03-14T11:56:24.734Z,10.96
2023-03-14T11:58:58.169Z,11.50
2023-03-14T12:01:33.658Z,11.91
2023-03-14T12:04:05.943Z,12.36
2023-03-14T12:06:37.005Z,12.64
2023-03-14T12:09:07.096Z,13.00
2023-03-14T12:11:38.267Z,13.00
2023-03-14T12:14:20.145Z,12.64
2023-03-14T12:16:48.604Z,12.61
2023-03-14T12:19:26.882Z,12.23
2023-03-14T12:21:57.291Z,11.52
2023-03-14T12:24:29.230Z,11.42
2023-03-14T12:26:59.361Z,10.91
2023-03-14T12:29:27.083Z,10.53
2023-03-14T12:32:23.521Z,10.40
2023-03-14T12:34:51.270Z,10.63
2023-03-14T12:37:29.630Z,10.75
2023-03-14T12:40:18.555Z,10.56
2023-03-14T12:42:56.377Z,9.81
2023-03-14T12:45:27.143Z,9.52
2023-03-14T12:48:10.672Z,9.78
2023-03-14T12:50:42.918Z,9.88
2023-03-14T12:53:41.430Z,10.33
2023-03-14T12:56:26.272Z,10.70
2023-03-14T12:59:08.096Z,10.80
2023-03-14T13:01:36.189Z,10.33
2023-03-14T13:04:06.505Z,10.54
2023-03-14T13:06:54.749Z,10.43
2023-03-14T13:09:37.967Z,10.55
2023-03-14T13:12:11.543Z,10.62
2023-03-14T13:14:43.347Z,11.12
2023-03-14T13:17:33.661Z,11.28
2023-03-14T13:20:04.010Z,11.50
2023-03-14T13:22:34.890Z,11.43
2023-03-14T13:25:04.710Z,11.74
2023-03-14T13:27:35.388Z,11.33
2023-03-14T13:30:16.788Z,11.31
2023-03-14T13:32:46.176Z,11.50
2023-03-14T13:35:22.547Z,11.63
2023-03-14T13:38:00.821Z,11.76
2023-03-14T13:40:36.323Z,11.83
2023-03-14T13:43:12.169Z,12.00
2023-03-14T13:45:47.175Z,11.87
2023-03-14T13:48:16.635Z,11.60
2023-03-14T13:50:51.429Z,11.24
2023-03-14T13:53:19.236Z,10.78
2023-03-14T13:55:46.861Z,10.54
2023-03-14T13:58:23.386Z,10.42
2023-03-14T14:01:06.527Z,10.09
2023-03-14T14:03:36.859Z,9.87
2023-03-14T14:06:04.669Z,9.65
2023-03-14T14:08:32.476Z,9.52
2023-03-14T14:11:02.364Z,9.29
2023-03-14T14:13:34.933Z,9.09
2023-03-14T14:16:04.798Z,8.83
2023-03-14T14:18:33.761Z,8.71
2023-03-14T14:21:02.201Z,8.77
2023-03-14T14:23:30.653Z,9.12
2023-03-14T14:25:59.432Z,8.97
2023-03-14T14:28:29.125Z,9.15
2023-03-14T14:31:07.124Z,9.26
2023-03-14T14:33:42.867Z,9.06
2023-03-14T14:36:17.454Z,8.81
2023-03-14T14:38:51.291Z,8.59
2023-03-14T14:41:20.196Z,8.56
2023-03-14T14:43:47.982Z,8.45
2023-03-14T14:46:19.856Z,8.38
2023-03-14T14:48:50.483Z,8.34
2023-03-14T14:51:26.644Z,8.10
2023-03-14T14:54:05.177Z,8.11
2023-03-14T14:56:36.919Z,8.01
2023-03-14T14:59:06.250Z,8.04
2023-03-14T15:01:36.621Z,8.01
2023-03-14T15:04:06.692Z,7.90
2023-03-14T15:06:34.414Z,7.94
2023-03-14T15:09:02.129Z,7.93
2023-03-14T15:11:29.714Z,7.75
2023-03-14T15:13:57.375Z,7.66
2023-03-14T15:16:30.742Z,7.72
2023-03-14T15:19:06.474Z,7.82
2023-03-14T15:21:39.287Z,7.79
2023-03-14T15:24:07.654Z,7.81
2023-03-14T15:26:35.256Z,7.87
2023-03-14T15:29:02.935Z,7.74
2023-03-14T15:31:30.615Z,7.74
2023-03-14T15:33:59.572Z,7.41
2023-03-14T15:36:29.628Z,7.19
2023-03-14T15:38:58.414Z,6.72
2023-03-14T15:41:26.605Z,6.51
2023-03-14T15:43:55.942Z,6.46
2023-03-14T15:46:24.097Z,6.44
2023-03-14T15:48:52.434Z,6.36
2023-03-14T15:51:21.477Z,6.32
2023-03-14T15:53:49.257Z,6.18
2023-03-14T15:56:18.669Z,6.08
2023-03-14T15:58:47.798Z,5.82
2023-03-14T16:01:16.885Z,5.76
2023-03-14T16:03:46.054Z,5.69
2023-03-14T16:06:13.796Z,5.54
2023-03-14T16:08:43.180Z,5.40
2023-03-14T16:11:12.261Z,5.41
2023-03-14T16:13:39.969Z,5.53
2023-03-14T16:16:08.993Z,5.55
2023-03-14T16:18:38.683Z,5.60
2023-03-14T16:21:09.160Z,5.54
2023-03-14T16:23:37.400Z,5.51
2023-03-14T16:26:08.044Z,5.49
2023-03-14T16:28:36.295Z,5.47
2023-03-14T16:31:04.566Z,5.49
2023-03-14T16:33:32.537Z,5.47
2023-03-14T16:36:05.966Z,5.47
2023-03-14T16:38:34.195Z,5.52
2023-03-14T16:41:03.158Z,5.46
2023-03-14T16:43:33.963Z,5.52
2023-03-14T16:46:02.397Z,5.51
2023-03-14T16:48:30.555Z,5.50
2023-03-14T16:50:58.522Z,5.53
2023-03-14T16:53:27.610Z,5.54
2023-03-14T16:55:55.417Z,5.52
2023-03-14T16:58:23.373Z,5.41
2023-03-14T17:00:52.455Z,5.43
2023-03-14T17:03:20.516Z,5.29
2023-03-14T17:05:49.061Z,5.45
2023-03-14T17:08:16.944Z,5.54
2023-03-14T17:10:44.567Z,5.46
2023-03-14T17:13:12.474Z,5.43
2023-03-14T17:15:40.113Z,5.52
2023-03-14T17:18:09.187Z,5.48
2023-03-14T17:20:36.937Z,5.44
2023-03-14T17:23:04.576Z,5.44
2023-03-14T17:25:32.348Z,5.36
2023-03-14T17:27:59.922Z,5.38
2023-03-14T17:30:27.688Z,5.34
2023-03-14T17:32:56.763Z,5.32
2023-03-14T17:35:26.622Z,5.45
2023-03-14T17:37:54.194Z,5.44
2023-03-14T17:40:21.960Z,5.46
2023-03-14T17:42:49.919Z,5.46
2023-03-14T17:45:18.474Z,5.45
2023-03-14T17:47:46.727Z,5.47
2023-03-14T17:50:14.794Z,5.42
2023-03-14T17:52:43.885Z,5.40
2023-03-14T17:55:13.536Z,5.33
2023-03-14T17:57:44.042Z,5.28
2023-03-14T18:00:14.485Z,5.32
2023-03-14T18:02:42.443Z,5.38
2023-03-14T18:05:10.710Z,5.35
2023-03-14T18:07:39.488Z,5.30
2023-03-14T18:10:10.487Z,5.25
2023-03-14T18:12:38.089Z,5.23
2023-03-14T18:15:06.329Z,5.21
2023-03-14T18:17:33.907Z,5.25
2023-03-14T18:20:01.534Z,5.18
2023-03-14T18:22:29.121Z,5.17
2023-03-14T18:24:56.734Z,5.21
2023-03-14T18:27:25.688Z,5.20
2023-03-14T18:29:53.268Z,5.15
2023-03-14T18:32:20.945Z,5.13
2023-03-14T18:34:48.711Z,5.04
2023-03-14T18:37:16.336Z,5.10
2023-03-14T18:39:43.963Z,5.10
2023-03-14T18:42:12.062Z,5.10
2023-03-14T18:44:41.890Z,5.05
2023-03-14T18:47:09.811Z,5.03
2023-03-14T18:49:37.470Z,5.00
2023-03-14T18:52:05.422Z,5.06
2023-03-14T18:54:33.141Z,5.10
2023-03-14T18:57:01.205Z,5.01
2023-03-14T18:59:29.179Z,4.99
2023-03-14T19:01:58.272Z,5.07
2023-03-14T19:04:26.264Z,5.08
2023-03-14T19:06:54.511Z,5.03
2023-03-14T19:09:22.388Z,5.03
2023-03-14T19:11:50.527Z,4.91
2023-03-14T19:14:20.266Z,5.01
2023-03-14T19:16:48.135Z,4.98
2023-03-14T19:19:17.181Z,5.00
2023-03-14T19:21:44.816Z,4.90
2023-03-14T19:24:15.256Z,4.84
2023-03-14T19:26:43.172Z,4.86
2023-03-14T19:29:11.670Z,4.96
2023-03-14T19:31:39.570Z,4.93
2023-03-14T19:34:07.792Z,4.87
2023-03-14T19:36:38.258Z,4.95
2023-03-14T19:39:07.341Z,4.88
2023-03-14T19:41:35.688Z,4.84
2023-03-14T19:44:03.759Z,4.76
2023-03-14T19:46:33.232Z,4.79
2023-03-14T19:49:01.304Z,4.74
2023-03-14T19:51:31.253Z,4.71
2023-03-14T19:54:03.338Z,4.66
2023-03-14T19:56:31.395Z,4.66
2023-03-14T19:58:59.195Z,4.63
2023-03-14T20:01:26.917Z,4.69
2023-03-14T20:03:54.724Z,4.53
2023-03-14T20:06:22.655Z,4.52
2023-03-14T20:08:50.494Z,4.52
2023-03-14T20:11:20.240Z,4.62
2023-03-14T20:13:47.939Z,4.60
2023-03-14T20:16:15.863Z,4.64
2023-03-14T20:18:44.316Z,4.59
2023-03-14T20:21:13.097Z,4.58
2023-03-14T20:23:43.564Z,4.55
2023-03-14T20:26:11.445Z,4.42
2023-03-14T20:28:42.687Z,4.44
2023-03-14T20:31:10.484Z,4.45
2023-03-14T20:33:38.309Z,4.42
2023-03-14T20:36:07.062Z,4.30
2023-03-14T20:38:35.062Z,4.32
2023-03-14T20:41:03.364Z,4.35
2023-03-14T20:43:32.637Z,4.29
2023-03-14T20:46:02.548Z,4.27
2023-03-14T20:48:31.663Z,4.20
2023-03-14T20:50:59.851Z,4.16
2023-03-14T20:53:27.450Z,4.11
2023-03-14T20:55:57.214Z,4.04
2023-03-14T20:58:24.995Z,4.00
2023-03-14T21:00:54.122Z,3.89
2023-03-14T21:03:24.161Z,3.95
2023-03-14T21:05:52.451Z,3.90
2023-03-14T21:08:21.753Z,3.78
2023-03-14T21:10:49.610Z,3.82
2023-03-14T21:13:17.408Z,3.79
2023-03-14T21:15:45.266Z,3.73
2023-03-14T21:18:12.930Z,3.78
2023-03-14T21:20:42.472Z,3.71
2023-03-14T21:23:11.878Z,3.75
2023-03-14T21:25:41.342Z,3.74
2023-03-14T21:28:10.218Z,3.71
2023-03-14T21:30:38.121Z,3.73
2023-03-14T21:33:06.020Z,3.77
2023-03-14T21:35:33.744Z,3.74
2023-03-14T21:38:02.787Z,3.68
2023-03-14T21:40:30.381Z,3.70
2023-03-14T21:42:58.060Z,3.69
2023-03-14T21:45:27.067Z,3.68
2023-03-14T21:47:55.033Z,3.64
2023-03-14T21:50:23.569Z,3.59
2023-03-14T21:52:51.734Z,3.58
2023-03-14T21:55:20.727Z,3.57
2023-03-14T21:57:49.817Z,3.50
2023-03-14T22:00:18.426Z,3.47
2023-03-14T22:02:53.802Z,3.45
2023-03-14T22:05:31.060Z,3.37
2023-03-14T22:07:58.788Z,3.30
2023-03-14T22:10:27.792Z,3.21
2023-03-14T22:12:57.622Z,3.19
2023-03-14T22:15:25.291Z,3.13
2023-03-14T22:17:52.849Z,3.12
2023-03-14T22:20:20.611Z,3.14
2023-03-14T22:22:48.212Z,3.14
2023-03-14T22:25:15.954Z,3.23
2023-03-14T22:27:45.254Z,3.27
2023-03-14T22:30:13.805Z,3.30
2023-03-14T22:32:41.486Z,3.32
2023-03-14T22:35:10.271Z,3.30
2023-03-14T22:37:40.332Z,3.26
2023-03-14T22:40:10.461Z,3.36
2023-03-14T22:42:38.079Z,3.36
2023-03-14T22:45:08.613Z,3.38
2023-03-14T22:47:36.297Z,3.31
2023-03-14T22:50:04.731Z,3.33
2023-03-14T22:52:32.388Z,3.33
2023-03-14T22:55:00.029Z,3.43
2023-03-14T22:57:27.710Z,3.53
2023-03-14T22:59:55.478Z,3.52
2023-03-14T23:02:24.441Z,3.48
2023-03-14T23:04:52.482Z,3.38
2023-03-14T23:07:20.067Z,3.43
2023-03-14T23:09:47.705Z,3.50
2023-03-14T23:12:17.610Z,3.57
2023-03-14T23:14:45.458Z,3.49
2023-03-14T23:17:13.058Z,3.34
2023-03-14T23:19:42.065Z,3.21
2023-03-14T23:22:09.886Z,2.55
2023-03-14T23:24:37.721Z,0.46
2023-03-14T23:27:05.391Z,-0.14
2023-03-14T23:29:32.979Z,-0.31
2023-03-14T23:32:00.580Z,-0.30
2023-03-14T23:34:28.191Z,-0.27
2023-03-14T23:36:57.297Z,-0.35
2023-03-14T23:39:24.885Z,-0.26
2023-03-14T23:41:52.479Z,-0.20
2023-03-14T23:44:20.235Z,-0.17
2023-03-14T23:46:47.855Z,-0.08
2023-03-14T23:49:15.457Z,0.01
2023-03-14T23:51:43.774Z,-0.04
2023-03-14T23:54:12.726Z,-0.02
2023-03-14T23:56:41.227Z,-0.01
2023-03-14T23:59:09.373Z,-0.06
